createdAt,value
2018-10-12T00:01:12.936Z,10.98
2018-10-12T00:03:42.754Z,10.99
2018-10-12T00:09:17.237Z,10.71
2018-10-12T00:11:46.939Z,10.58
2018-10-12T00:14:26.099Z,10.51
2018-10-12T00:16:55.762Z,10.46
2018-10-12T00:19:25.448Z,10.39
2018-10-12T00:21:55.520Z,10.37
2018-10-12T00:24:38.914Z,10.38
2018-10-12T00:33:18.974Z,10.47
2018-10-12T00:35:48.610Z,10.54
2018-10-12T00:41:39.046Z,10.54
2018-10-12T00:44:08.632Z,10.47
2018-10-12T00:46:38.247Z,10.62
2018-10-12T00:49:08.170Z,10.83
2018-10-12T00:51:37.767Z,10.86
2018-10-12T00:54:07.558Z,10.80
2018-10-12T00:56:37.316Z,10.79
2018-10-12T00:59:06.991Z,10.75
2018-10-12T01:01:36.606Z,10.71
2018-10-12T01:07:12.788Z,10.35
2018-10-12T01:09:42.563Z,10.27
2018-10-12T01:12:43.182Z,10.37
2018-10-12T01:15:12.887Z,10.35
2018-10-12T01:17:42.531Z,10.26
2018-10-12T01:20:12.369Z,10.25
2018-10-12T01:22:42.021Z,10.18
2018-10-12T01:25:15.376Z,10.12
2018-10-12T01:27:44.993Z,9.98
2018-10-12T01:30:14.593Z,9.95
2018-10-12T01:32:49.655Z,9.97
2018-10-12T01:35:19.322Z,10.07
2018-10-12T01:37:48.967Z,10.10
2018-10-12T01:40:18.690Z,10.16
2018-10-12T01:42:48.355Z,10.19
2018-10-12T01:45:18.045Z,10.20
2018-10-12T01:47:59.735Z,10.22
2018-10-12T01:50:29.442Z,10.25
2018-10-12T01:52:59.232Z,10.19
2018-10-12T01:55:28.863Z,10.15
2018-10-12T01:57:58.480Z,10.12
2018-10-12T02:00:28.114Z,10.18
2018-10-12T02:02:57.896Z,10.04
2018-10-12T02:05:27.564Z,10.03
2018-10-12T02:08:03.350Z,10.03
2018-10-12T02:10:32.974Z,10.12
2018-10-12T02:13:02.664Z,10.19
2018-10-12T02:15:31.991Z,10.26
2018-10-12T02:18:01.498Z,10.33
2018-10-12T02:20:30.825Z,10.41
2018-10-12T02:23:00.245Z,10.42
2018-10-12T02:25:31.697Z,10.35
2018-10-12T02:28:01.108Z,10.35
2018-10-12T02:30:30.414Z,10.34
2018-10-12T02:32:59.789Z,10.36
2018-10-12T02:35:29.112Z,10.37
2018-10-12T02:37:58.430Z,10.42
2018-10-12T02:40:28.009Z,10.61
2018-10-12T02:42:57.368Z,10.56
2018-10-12T02:45:26.809Z,10.56
2018-10-12T02:47:56.193Z,10.56
2018-10-12T02:50:25.648Z,10.46
2018-10-12T02:52:54.978Z,10.23
2018-10-12T02:55:24.316Z,10.10
2018-10-12T02:57:53.634Z,10.07
2018-10-12T03:00:22.989Z,9.88
2018-10-12T03:02:52.292Z,9.73
2018-10-12T03:05:21.828Z,9.66
2018-10-12T03:07:51.337Z,9.63
2018-10-12T03:10:20.629Z,9.64
2018-10-12T03:12:50.052Z,9.66
2018-10-12T03:15:19.394Z,9.70
2018-10-12T03:17:48.760Z,9.77
2018-10-12T03:20:18.085Z,9.86
2018-10-12T03:22:47.665Z,9.85
2018-10-12T03:25:17.210Z,9.87
2018-10-12T03:28:03.609Z,9.93
2018-10-12T03:30:33.007Z,9.99
2018-10-12T03:33:02.477Z,9.91
2018-10-12T03:35:31.965Z,9.91
2018-10-12T03:38:01.373Z,10.04
2018-10-12T03:40:30.885Z,10.17
2018-10-12T03:43:00.281Z,10.25
2018-10-12T03:45:29.654Z,10.27
2018-10-12T03:47:59.003Z,10.24
2018-10-12T03:50:28.471Z,10.32
2018-10-12T03:52:57.804Z,10.32
2018-10-12T03:55:27.102Z,10.27
2018-10-12T03:57:56.453Z,10.36
2018-10-12T04:00:26.306Z,10.40
2018-10-12T04:02:55.779Z,10.41
2018-10-12T04:05:25.102Z,10.27
2018-10-12T04:07:54.433Z,10.17
2018-10-12T04:10:24.049Z,10.10
2018-10-12T04:12:53.790Z,10.08
2018-10-12T04:15:23.296Z,10.12
2018-10-12T04:17:52.605Z,10.21
2018-10-12T04:20:23.025Z,10.27
2018-10-12T04:22:52.349Z,10.39
2018-10-12T04:25:21.745Z,10.39
2018-10-12T04:27:51.101Z,10.37
2018-10-12T04:30:20.419Z,10.35
2018-10-12T04:32:49.806Z,10.34
2018-10-12T04:35:19.613Z,10.33
2018-10-12T04:37:49.086Z,10.41
2018-10-12T04:41:28.012Z,10.41
2018-10-12T04:44:02.057Z,10.56
2018-10-12T04:46:38.344Z,10.60
2018-10-12T04:49:10.093Z,10.55
2018-10-12T04:51:56.910Z,10.53
2018-10-12T04:54:26.805Z,10.51
2018-10-12T04:56:56.178Z,10.61
2018-10-12T04:59:25.566Z,10.66
2018-10-12T05:01:54.991Z,10.67
2018-10-12T05:04:25.557Z,10.68
2018-10-12T05:06:55.098Z,10.65
2018-10-12T05:09:24.553Z,10.61
2018-10-12T05:11:54.969Z,10.62
2018-10-12T05:14:24.585Z,10.54
2018-10-12T05:16:55.489Z,10.43
2018-10-12T05:19:24.893Z,10.40
2018-10-12T05:21:54.225Z,10.36
2018-10-12T05:24:34.333Z,10.27
2018-10-12T05:27:03.773Z,10.23
2018-10-12T05:29:33.089Z,10.22
2018-10-12T05:32:02.581Z,10.14
2018-10-12T05:34:31.986Z,10.07
2018-10-12T05:37:02.353Z,10.01
2018-10-12T05:39:31.740Z,9.98
2018-10-12T05:42:01.091Z,9.93
2018-10-12T05:44:30.441Z,9.96
2018-10-12T05:46:59.753Z,10.06
2018-10-12T05:49:46.028Z,10.11
2018-10-12T05:52:20.813Z,10.13
2018-10-12T05:54:50.265Z,10.09
2018-10-12T05:57:19.718Z,10.36
2018-10-12T05:59:49.134Z,10.52
2018-10-12T06:02:18.527Z,10.66
2018-10-12T06:04:47.857Z,10.78
2018-10-12T06:07:17.182Z,10.97
2018-10-12T06:09:46.625Z,11.09
2018-10-12T06:12:15.885Z,11.21
2018-10-12T06:14:45.299Z,11.31
2018-10-12T06:17:14.670Z,11.40
2018-10-12T06:19:44.281Z,11.54
2018-10-12T06:22:13.747Z,11.58
2018-10-12T06:24:43.114Z,11.68
2018-10-12T06:27:12.541Z,11.76
2018-10-12T06:29:41.891Z,11.83
2018-10-12T06:32:11.318Z,12.02
2018-10-12T06:34:40.669Z,12.10
2018-10-12T06:37:09.992Z,12.11
2018-10-12T06:39:39.464Z,12.35
2018-10-12T06:42:08.801Z,12.58
2018-10-12T06:44:38.277Z,12.63
2018-10-12T06:47:07.666Z,12.74
2018-10-12T06:49:36.969Z,12.86
2018-10-12T06:52:06.278Z,12.77
2018-10-12T06:54:35.961Z,12.74
2018-10-12T06:57:05.496Z,12.84
2018-10-12T06:59:34.843Z,13.10
2018-10-12T07:02:04.244Z,13.35
2018-10-12T07:04:34.192Z,13.41
2018-10-12T07:07:03.681Z,13.60
2018-10-12T07:09:33.110Z,13.62
2018-10-12T07:12:02.606Z,13.91
2018-10-12T07:14:31.909Z,14.00
2018-10-12T07:17:01.490Z,14.26
2018-10-12T07:19:30.800Z,14.43
2018-10-12T07:22:00.104Z,14.17
2018-10-12T07:24:29.424Z,14.11
2018-10-12T07:26:58.819Z,14.08
2018-10-12T07:29:28.135Z,13.89
2018-10-12T07:31:57.469Z,13.91
2018-10-12T07:34:26.769Z,14.12
2018-10-12T07:36:56.181Z,14.13
2018-10-12T07:39:25.632Z,14.21
2018-10-12T07:41:54.932Z,14.35
2018-10-12T07:44:24.397Z,14.24
2018-10-12T07:46:53.750Z,14.35
2018-10-12T07:49:23.064Z,14.34
2018-10-12T07:51:52.445Z,14.41
2018-10-12T07:54:21.770Z,14.47
2018-10-12T07:56:51.085Z,14.76
2018-10-12T07:59:26.237Z,14.63
2018-10-12T08:01:55.653Z,14.62
2018-10-12T08:04:24.982Z,14.52
2018-10-12T08:06:54.391Z,14.74
2018-10-12T08:09:23.803Z,15.06
2018-10-12T08:11:53.177Z,15.07
2018-10-12T08:14:22.538Z,14.86
2018-10-12T08:16:51.942Z,15.08
2018-10-12T08:19:21.327Z,15.56
2018-10-12T08:21:50.716Z,15.90
2018-10-12T08:24:20.129Z,16.08
2018-10-12T08:26:49.559Z,15.90
2018-10-12T08:29:18.974Z,15.61
2018-10-12T08:31:48.329Z,16.45
2018-10-12T08:34:17.661Z,16.79
2018-10-12T08:36:47.021Z,17.13
2018-10-12T08:39:16.345Z,17.05
2018-10-12T08:41:45.700Z,16.62
2018-10-12T08:44:15.334Z,17.27
2018-10-12T08:46:44.678Z,17.87
2018-10-12T08:49:14.277Z,17.73
2018-10-12T08:51:44.018Z,18.27
2018-10-12T08:54:13.759Z,18.76
2018-10-12T08:56:43.391Z,19.63
2018-10-12T08:59:13.190Z,19.82
2018-10-12T09:01:42.874Z,20.72
2018-10-12T09:04:12.543Z,21.02
2018-10-12T09:06:42.277Z,21.73
2018-10-12T09:09:12.190Z,21.97
2018-10-12T09:11:42.271Z,22.16
2018-10-12T09:14:11.962Z,21.92
2018-10-12T09:16:41.658Z,22.65
2018-10-12T09:19:11.360Z,23.06
2018-10-12T09:21:41.103Z,22.92
2018-10-12T09:24:10.706Z,22.51
2018-10-12T09:26:40.553Z,22.96
2018-10-12T09:29:10.235Z,23.03
2018-10-12T09:31:39.914Z,23.59
2018-10-12T09:34:10.531Z,23.66
2018-10-12T09:36:40.344Z,23.97
2018-10-12T09:39:09.958Z,24.09
2018-10-12T09:41:39.692Z,24.37
2018-10-12T09:44:09.687Z,24.94
2018-10-12T09:46:39.353Z,24.87
2018-10-12T09:49:09.787Z,24.91
2018-10-12T09:51:39.500Z,24.73
2018-10-12T09:54:10.412Z,25.21
2018-10-12T09:56:40.085Z,25.23
2018-10-12T09:59:09.726Z,25.29
2018-10-12T10:01:44.791Z,25.29
2018-10-12T10:04:18.271Z,25.66
2018-10-12T10:06:47.960Z,24.56
2018-10-12T10:09:17.662Z,24.08
2018-10-12T10:11:47.311Z,24.93
2018-10-12T10:14:16.942Z,25.92
2018-10-12T10:16:46.646Z,25.30
2018-10-12T10:19:16.652Z,25.40
2018-10-12T10:21:46.576Z,25.02
2018-10-12T10:24:16.177Z,24.55
2018-10-12T10:26:45.835Z,25.12
2018-10-12T10:29:15.529Z,25.81
2018-10-12T10:31:45.212Z,25.68
2018-10-12T10:34:14.947Z,25.22
2018-10-12T10:36:44.686Z,26.27
2018-10-12T10:39:14.395Z,26.49
2018-10-12T10:41:44.066Z,26.31
2018-10-12T10:44:14.057Z,26.36
2018-10-12T10:46:43.720Z,25.79
2018-10-12T10:49:13.596Z,25.61
2018-10-12T10:51:43.308Z,25.81
2018-10-12T10:54:12.892Z,26.36
2018-10-12T10:56:42.649Z,26.11
2018-10-12T10:59:12.257Z,25.69
2018-10-12T11:01:41.910Z,25.95
2018-10-12T11:04:11.485Z,26.53
2018-10-12T11:06:41.188Z,26.30
2018-10-12T11:09:10.812Z,26.31
2018-10-12T11:11:40.470Z,27.13
2018-10-12T11:14:10.154Z,27.91
2018-10-12T11:16:39.869Z,27.19
2018-10-12T11:19:09.572Z,28.04
2018-10-12T11:21:39.277Z,28.49
2018-10-12T11:24:09.184Z,27.95
2018-10-12T11:26:39.271Z,28.04
2018-10-12T11:29:09.136Z,27.07
2018-10-12T11:31:38.807Z,26.24
2018-10-12T11:34:15.503Z,25.26
2018-10-12T11:36:45.198Z,26.44
2018-10-12T11:39:16.565Z,26.16
2018-10-12T11:41:56.175Z,25.97
2018-10-12T11:44:25.986Z,25.10
2018-10-12T11:46:55.631Z,25.57
2018-10-12T11:49:30.291Z,26.07
2018-10-12T11:51:59.956Z,27.56
2018-10-12T11:54:30.539Z,27.45
2018-10-12T11:57:00.244Z,27.47
2018-10-12T11:59:29.933Z,26.89
2018-10-12T12:02:00.188Z,26.40
2018-10-12T12:04:29.978Z,25.98
2018-10-12T12:06:59.728Z,25.88
2018-10-12T12:09:29.671Z,26.02
2018-10-12T12:11:59.339Z,26.75
2018-10-12T12:14:29.445Z,28.28
2018-10-12T12:17:00.956Z,27.63
2018-10-12T12:19:30.904Z,26.96
2018-10-12T12:22:00.643Z,25.86
2018-10-12T12:24:30.336Z,26.38
2018-10-12T12:27:00.330Z,25.59
2018-10-12T12:29:30.580Z,26.21
2018-10-12T12:32:00.489Z,25.23
2018-10-12T12:34:30.138Z,25.79
2018-10-12T12:36:59.778Z,26.02
2018-10-12T12:39:29.767Z,25.95
2018-10-12T12:41:59.502Z,26.00
2018-10-12T12:44:29.451Z,25.52
2018-10-12T12:46:59.117Z,25.53
2018-10-12T12:49:28.994Z,25.56
2018-10-12T12:51:58.438Z,26.53
2018-10-12T12:54:28.204Z,26.63
2018-10-12T12:56:58.035Z,25.92
2018-10-12T12:59:27.730Z,25.49
2018-10-12T13:01:57.598Z,25.73
2018-10-12T13:04:27.245Z,25.92
2018-10-12T13:06:59.784Z,25.90
2018-10-12T13:09:35.283Z,25.85
2018-10-12T13:12:07.384Z,25.76
2018-10-12T13:14:37.231Z,26.27
2018-10-12T13:17:06.907Z,26.47
2018-10-12T13:19:36.732Z,26.61
2018-10-12T13:22:19.894Z,25.79
2018-10-12T13:24:50.207Z,26.25
2018-10-12T13:27:19.906Z,26.73
2018-10-12T13:29:49.594Z,26.23
2018-10-12T13:32:21.099Z,26.50
2018-10-12T13:34:51.027Z,26.47
2018-10-12T13:37:20.855Z,26.36
2018-10-12T13:39:54.673Z,26.86
2018-10-12T13:42:24.343Z,26.73
2018-10-12T13:44:54.093Z,27.01
2018-10-12T13:50:35.641Z,26.64
2018-10-12T13:53:05.290Z,26.71
2018-10-12T13:55:36.848Z,26.61
2018-10-12T13:58:06.774Z,26.79
2018-10-12T14:00:36.594Z,26.84
2018-10-12T14:03:06.243Z,26.84
2018-10-12T14:05:36.066Z,26.37
2018-10-12T14:08:05.749Z,25.96
2018-10-12T14:10:35.436Z,26.35
2018-10-12T14:13:05.065Z,26.55
2018-10-12T14:15:34.807Z,26.67
2018-10-12T14:18:04.457Z,26.81
2018-10-12T14:20:34.042Z,26.59
2018-10-12T14:23:04.071Z,27.50
2018-10-12T14:25:33.861Z,27.86
2018-10-12T14:28:03.636Z,27.41
2018-10-12T14:30:33.374Z,27.76
2018-10-12T14:33:03.074Z,27.77
2018-10-12T14:35:33.701Z,27.92
2018-10-12T14:38:03.698Z,27.29
2018-10-12T14:40:33.296Z,27.52
2018-10-12T14:43:04.165Z,27.63
2018-10-12T14:45:34.011Z,27.46
2018-10-12T14:48:08.287Z,27.28
2018-10-12T14:50:38.046Z,27.10
2018-10-12T14:53:08.052Z,27.26
2018-10-12T14:55:38.014Z,27.50
2018-10-12T14:58:07.886Z,27.27
2018-10-12T15:00:37.567Z,28.32
2018-10-12T15:03:07.675Z,29.60
2018-10-12T15:05:37.365Z,29.77
2018-10-12T15:08:17.174Z,30.92
2018-10-12T15:10:46.985Z,31.53
2018-10-12T15:13:16.742Z,32.50
2018-10-12T15:15:52.954Z,32.73
2018-10-12T15:18:23.378Z,31.55
2018-10-12T15:21:09.950Z,31.54
2018-10-12T15:23:39.647Z,32.15
2018-10-12T15:26:09.392Z,32.47
2018-10-12T15:28:39.026Z,33.67
2018-10-12T15:31:09.098Z,34.64
2018-10-12T15:33:43.290Z,35.78
2018-10-12T15:36:13.037Z,35.46
2018-10-12T15:38:42.702Z,34.90
2018-10-12T15:41:12.429Z,34.60
2018-10-12T15:43:42.227Z,33.51
2018-10-12T15:46:11.946Z,32.12
2018-10-12T15:48:41.714Z,31.46
2018-10-12T15:51:11.382Z,31.36
2018-10-12T15:53:41.047Z,30.18
2018-10-12T15:56:27.470Z,29.77
2018-10-12T15:58:57.107Z,29.91
2018-10-12T16:01:26.738Z,29.42
2018-10-12T16:03:56.781Z,28.70
2018-10-12T16:06:26.948Z,27.90
2018-10-12T16:08:56.687Z,27.10
2018-10-12T16:11:27.762Z,26.57
2018-10-12T16:13:58.049Z,26.03
2018-10-12T16:16:28.430Z,24.88
2018-10-12T16:18:59.960Z,24.10
2018-10-12T16:21:30.365Z,23.18
2018-10-12T16:24:10.034Z,22.76
2018-10-12T16:26:40.931Z,22.22
2018-10-12T16:29:10.906Z,21.74
2018-10-12T16:31:40.934Z,21.41
2018-10-12T16:37:13.690Z,20.45
2018-10-12T16:39:44.854Z,20.10
2018-10-12T16:42:19.835Z,19.73
2018-10-12T16:44:50.575Z,19.50
2018-10-12T16:47:20.247Z,19.27
2018-10-12T16:49:50.636Z,19.04
2018-10-12T16:52:26.014Z,18.78
2018-10-12T16:54:56.343Z,18.53
2018-10-12T16:57:30.890Z,18.31
2018-10-12T17:00:00.926Z,18.13
2018-10-12T17:02:30.550Z,17.95
2018-10-12T17:05:00.407Z,17.81
2018-10-12T17:07:30.030Z,17.69
2018-10-12T17:09:59.710Z,17.58
2018-10-12T17:12:39.900Z,17.47
2018-10-12T17:15:21.351Z,17.38
2018-10-12T17:17:51.146Z,17.27
2018-10-12T17:20:20.867Z,17.16
2018-10-12T17:22:50.717Z,17.06
2018-10-12T17:25:22.654Z,16.96
2018-10-12T17:27:52.423Z,16.85
2018-10-12T17:30:35.772Z,16.76
2018-10-12T17:33:05.374Z,16.67
2018-10-12T17:35:35.019Z,16.53
2018-10-12T17:38:04.715Z,16.41
2018-10-12T17:40:34.380Z,16.37
2018-10-12T17:43:04.089Z,16.27
2018-10-12T17:45:33.698Z,16.22
2018-10-12T17:48:04.710Z,16.17
2018-10-12T17:50:34.391Z,16.11
2018-10-12T17:53:04.031Z,16.04
2018-10-12T17:55:33.727Z,15.97
2018-10-12T17:58:03.325Z,15.92
2018-10-12T18:00:33.155Z,15.90
2018-10-12T18:03:02.686Z,15.84
2018-10-12T18:05:32.392Z,15.77
2018-10-12T18:08:02.194Z,15.67
2018-10-12T18:10:31.855Z,15.59
2018-10-12T18:13:01.749Z,15.53
2018-10-12T18:15:31.470Z,15.48
2018-10-12T18:18:01.301Z,15.45
2018-10-12T18:20:30.634Z,15.44
2018-10-12T18:23:00.009Z,15.42
2018-10-12T18:25:29.422Z,15.32
2018-10-12T18:27:58.873Z,15.25
2018-10-12T18:30:28.239Z,15.22
2018-10-12T18:32:57.609Z,15.12
2018-10-12T18:35:27.517Z,15.07
2018-10-12T18:37:56.874Z,15.00
2018-10-12T18:40:29.843Z,14.94
2018-10-12T18:42:59.323Z,14.89
2018-10-12T18:45:28.769Z,14.89
2018-10-12T18:47:58.129Z,14.86
2018-10-12T18:50:27.554Z,14.84
2018-10-12T18:52:56.860Z,14.78
2018-10-12T18:55:27.165Z,14.75
2018-10-12T18:57:56.629Z,14.64
2018-10-12T19:00:25.966Z,14.67
2018-10-12T19:02:55.533Z,14.64
2018-10-12T19:05:24.986Z,14.61
2018-10-12T19:07:59.978Z,14.56
2018-10-12T19:10:29.325Z,14.52
2018-10-12T19:12:58.677Z,14.43
2018-10-12T19:15:28.193Z,14.38
2018-10-12T19:17:57.521Z,14.34
2018-10-12T19:20:26.891Z,14.26
2018-10-12T19:22:56.326Z,14.23
2018-10-12T19:25:25.760Z,14.17
2018-10-12T19:27:55.138Z,14.21
2018-10-12T19:30:24.902Z,14.18
2018-10-12T19:32:54.223Z,14.11
2018-10-12T19:35:34.953Z,14.06
2018-10-12T19:38:04.327Z,14.05
2018-10-12T19:40:33.646Z,14.03
2018-10-12T19:43:03.177Z,14.01
2018-10-12T19:45:32.521Z,13.94
2018-10-12T19:48:01.994Z,13.90
2018-10-12T19:50:31.348Z,13.87
2018-10-12T19:53:00.846Z,13.82
2018-10-12T19:55:30.320Z,13.74
2018-10-12T19:57:59.939Z,13.69
2018-10-12T20:00:29.612Z,13.77
2018-10-12T20:02:59.278Z,13.76
2018-10-12T20:05:29.422Z,13.68
2018-10-12T20:08:01.112Z,13.60
2018-10-12T20:10:31.026Z,13.58
2018-10-12T20:13:00.764Z,13.55
2018-10-12T20:15:30.355Z,13.50
2018-10-12T20:18:00.726Z,13.43
2018-10-12T20:20:30.463Z,13.34
2018-10-12T20:23:00.203Z,13.35
2018-10-12T20:25:29.931Z,13.26
2018-10-12T20:27:59.631Z,13.13
2018-10-12T20:30:29.287Z,13.17
2018-10-12T20:32:58.944Z,13.11
2018-10-12T20:35:28.638Z,12.93
2018-10-12T20:37:58.441Z,12.81
2018-10-12T20:40:28.956Z,12.84
2018-10-12T20:43:02.554Z,12.86
2018-10-12T20:45:32.325Z,12.92
2018-10-12T20:48:01.931Z,12.91
2018-10-12T20:50:31.584Z,12.93
2018-10-12T20:53:01.361Z,12.91
2018-10-12T20:55:31.012Z,12.86
2018-10-12T20:58:00.790Z,12.83
2018-10-12T21:00:30.544Z,12.70
2018-10-12T21:03:04.618Z,12.63
2018-10-12T21:05:34.213Z,12.68
2018-10-12T21:08:05.519Z,12.63
2018-10-12T21:10:35.503Z,12.61
2018-10-12T21:13:05.380Z,12.58
2018-10-12T21:15:35.079Z,12.58
2018-10-12T21:18:04.992Z,12.59
2018-10-12T21:20:46.392Z,12.61
2018-10-12T21:23:41.035Z,12.58
2018-10-12T21:26:10.734Z,12.46
2018-10-12T21:28:44.604Z,12.43
2018-10-12T21:31:16.711Z,12.36
2018-10-12T21:33:48.416Z,12.38
2018-10-12T21:36:18.327Z,12.36
2018-10-12T21:38:48.004Z,12.38
2018-10-12T21:41:17.667Z,12.37
2018-10-12T21:43:47.406Z,12.35
2018-10-12T21:46:17.079Z,12.36
2018-10-12T21:48:47.061Z,12.41
2018-10-12T21:51:16.673Z,12.39
2018-10-12T21:53:46.498Z,12.38
2018-10-12T21:56:26.728Z,12.33
2018-10-12T21:58:56.503Z,12.30
2018-10-12T22:01:26.334Z,12.26
2018-10-12T22:03:56.077Z,12.11
2018-10-12T22:06:25.779Z,11.89
2018-10-12T22:09:03.739Z,11.75
2018-10-12T22:11:57.737Z,11.63
2018-10-12T22:14:27.378Z,11.51
2018-10-12T22:17:00.494Z,11.46
2018-10-12T22:19:55.119Z,11.48
2018-10-12T22:22:26.136Z,11.53
2018-10-12T22:25:00.776Z,11.71
2018-10-12T22:27:32.128Z,11.75
2018-10-12T22:30:09.067Z,11.61
2018-10-12T22:32:38.659Z,11.69
2018-10-12T22:35:08.998Z,11.72
2018-10-12T22:37:39.110Z,11.74
2018-10-12T22:40:08.799Z,11.75
2018-10-12T22:42:49.647Z,11.72
2018-10-12T22:45:19.182Z,11.72
2018-10-12T22:47:48.907Z,11.64
2018-10-12T22:50:18.663Z,11.69
2018-10-12T22:52:55.483Z,11.69
2018-10-12T22:55:27.098Z,11.75
2018-10-12T22:58:01.783Z,11.65
2018-10-12T23:00:36.637Z,11.60
2018-10-12T23:03:09.571Z,11.61
2018-10-12T23:05:40.601Z,11.64
2018-10-12T23:08:17.237Z,11.62
2018-10-12T23:10:52.409Z,11.63
2018-10-12T23:13:24.264Z,11.59
2018-10-12T23:15:56.394Z,11.61
2018-10-12T23:18:27.841Z,11.54
2018-10-12T23:20:57.288Z,11.50
2018-10-12T23:23:26.886Z,11.47
2018-10-12T23:25:56.712Z,11.39
2018-10-12T23:28:26.061Z,11.28
2018-10-12T23:30:57.062Z,11.17
2018-10-12T23:33:47.245Z,11.25
2018-10-12T23:36:18.568Z,11.22
2018-10-12T23:38:51.110Z,11.18
2018-10-12T23:41:27.157Z,11.18
2018-10-12T23:43:56.639Z,11.21
2018-10-12T23:46:29.997Z,11.20
2018-10-12T23:48:59.798Z,11.07
2018-10-12T23:51:35.048Z,10.96
2018-10-12T23:54:05.685Z,10.91
2018-10-12T23:56:35.352Z,10.85
2018-10-12T23:59:05.763Z,10.80
